Time;durP1;ratioP1;P1;durP2;ratioP2;P2;SDS_P1;SDS_P2;PMS_P1;PMS_P2;Temp;Humidity;BMP_temperature;BMP_pressure;BME280_temperature;BME280_humidity;BME280_pressure;Samples;Min_cycle;Max_cycle;Signal;HPM_P1;HPM_P2
2022/06/23 00:01:21;;;;;;;2.17;1.17;;;21.60;66.20;;;;;;4974656;28;20475;-81
2022/06/23 00:03:48;;;;;;;2.92;1.50;;;21.60;66.20;;;;;;4973235;28;20038;-81
2022/06/23 00:07:00;;;;;;;2.58;1.20;;;21.60;66.30;;;;;;4974473;28;20125;-81
2022/06/23 00:09:40;;;;;;;2.88;1.50;;;21.60;66.30;;;;;;4974317;28;20037;-81
2022/06/23 00:12:18;;;;;;;3.78;1.40;;;21.60;66.40;;;;;;4974322;28;20046;-81
2022/06/23 00:14:55;;;;;;;2.60;1.23;;;21.60;66.40;;;;;;4974261;28;20407;-81
2022/06/23 00:17:25;;;;;;;2.40;1.40;;;21.60;66.60;;;;;;4974216;28;20113;-81
2022/06/23 00:19:51;;;;;;;3.00;1.30;;;21.50;66.60;;;;;;4973931;28;20034;-82
2022/06/23 00:22:20;;;;;;;5.20;1.45;;;21.50;66.80;;;;;;4974214;28;20681;-81
2022/06/23 00:24:52;;;;;;;3.58;1.52;;;21.50;66.90;;;;;;4974018;28;20039;-81
2022/06/23 00:27:21;;;;;;;5.57;1.40;;;21.50;67.00;;;;;;4973882;28;20546;-81
2022/06/23 00:29:48;;;;;;;2.80;1.40;;;21.50;67.80;;;;;;4973978;28;20029;-81
2022/06/23 00:32:14;;;;;;;3.10;1.42;;;21.50;67.20;;;;;;4974165;28;20034;-81
2022/06/23 00:35:01;;;;;;;4.38;1.65;;;21.40;67.10;;;;;;4973886;28;20403;-82
2022/06/23 00:37:28;;;;;;;4.30;1.63;;;21.40;67.20;;;;;;4974018;28;20026;-82
2022/06/23 00:40:00;;;;;;;3.58;1.30;;;21.40;67.40;;;;;;4973590;28;20078;-81
2022/06/23 00:42:32;;;;;;;3.50;1.42;;;21.40;67.50;;;;;;4972650;28;20476;-81
2022/06/23 00:45:09;;;;;;;2.35;1.30;;;21.40;67.60;;;;;;4973884;28;20035;-81
2022/06/23 00:47:50;;;;;;;4.03;1.50;;;21.40;67.70;;;;;;4973464;28;20101;-82
2022/06/23 00:50:25;;;;;;;2.50;1.30;;;21.40;67.80;;;;;;4973479;28;20035;-81
2022/06/23 00:53:01;;;;;;;4.25;1.50;;;21.30;68.00;;;;;;4973733;28;20077;-81
2022/06/23 00:55:30;;;;;;;3.45;1.58;;;21.30;68.10;;;;;;4973458;28;20023;-81
2022/06/23 00:58:04;;;;;;;3.67;1.58;;;21.30;68.10;;;;;;4972739;28;20093;-81
2022/06/23 01:00:36;;;;;;;4.05;2.05;;;21.30;68.30;;;;;;4973548;28;20034;-81
2022/06/23 01:03:17;;;;;;;5.10;1.50;;;21.30;68.40;;;;;;4973379;28;20073;-82
2022/06/23 01:05:50;;;;;;;2.92;1.42;;;21.20;68.40;;;;;;4973100;28;20031;-82
2022/06/23 01:08:34;;;;;;;5.82;1.80;;;21.20;68.60;;;;;;4973111;28;20042;-81
2022/06/23 01:11:29;;;;;;;3.88;1.70;;;21.20;68.30;;;;;;4973249;28;20400;-81
2022/06/23 01:14:15;;;;;;;3.08;1.30;;;21.20;68.50;;;;;;4972662;28;20377;-82
2022/06/23 01:16:53;;;;;;;4.82;1.30;;;21.20;68.90;;;;;;4972818;28;20121;-81
2022/06/23 01:19:30;;;;;;;4.78;1.80;;;21.20;69.10;;;;;;4972884;28;20125;-82
2022/06/23 01:22:01;;;;;;;3.28;1.42;;;21.20;69.00;;;;;;4973118;28;20049;-81
2022/06/23 01:24:34;;;;;;;3.42;1.60;;;21.10;69.10;;;;;;4972974;28;20042;-82
2022/06/23 01:27:28;;;;;;;5.15;2.17;;;21.10;69.20;;;;;;4972729;28;20034;-82
2022/06/23 01:30:02;;;;;;;5.25;2.10;;;21.10;69.20;;;;;;4972795;28;20039;-81
2022/06/23 01:33:04;;;;;;;4.13;1.65;;;21.10;69.30;;;;;;4972941;28;20035;-81
2022/06/23 01:35:34;;;;;;;4.25;1.73;;;21.00;69.50;;;;;;4972819;28;20027;-81
2022/06/23 01:38:42;;;;;;;4.15;1.70;;;21.00;69.80;;;;;;4972645;28;20027;-81
2022/06/23 01:41:20;;;;;;;5.70;2.07;;;21.00;70.00;;;;;;4972680;28;20034;-81
2022/06/23 01:43:59;;;;;;;5.03;1.50;;;20.90;70.10;;;;;;4972612;28;20034;-81
2022/06/23 01:46:47;;;;;;;3.53;1.70;;;20.90;70.30;;;;;;4972467;28;20039;-81
2022/06/23 01:49:22;;;;;;;3.35;1.40;;;20.80;70.40;;;;;;4972377;28;20070;-81
2022/06/23 01:51:52;;;;;;;6.00;1.98;;;20.80;71.00;;;;;;4955276;28;20031;-81
2022/06/23 01:54:20;;;;;;;4.45;1.60;;;20.70;71.30;;;;;;4972319;28;20027;-81
2022/06/23 01:57:19;;;;;;;3.78;1.67;;;20.70;71.70;;;;;;4972183;28;20035;-81
2022/06/23 01:59:50;;;;;;;3.95;1.80;;;20.70;72.70;;;;;;4972032;28;20119;-81
2022/06/23 02:02:51;;;;;;;4.20;1.60;;;20.60;72.10;;;;;;4972282;28;20105;-81
2022/06/23 02:05:31;;;;;;;6.38;1.88;;;20.60;72.20;;;;;;4972199;28;20069;-81
2022/06/23 02:08:20;;;;;;;4.28;1.73;;;20.60;72.30;;;;;;4971335;28;20118;-81
2022/06/23 02:10:55;;;;;;;4.32;1.60;;;20.60;72.30;;;;;;4971858;28;20027;-81
2022/06/23 02:13:23;;;;;;;5.45;2.05;;;20.60;72.40;;;;;;4972102;28;20041;-81
2022/06/23 02:16:21;;;;;;;4.50;1.50;;;20.50;72.50;;;;;;4971677;28;20042;-81
2022/06/23 02:18:59;;;;;;;4.93;1.80;;;20.50;72.70;;;;;;4971925;28;20088;-81
2022/06/23 02:21:35;;;;;;;4.13;1.80;;;20.50;72.70;;;;;;4972347;28;20051;-81
2022/06/23 02:24:25;;;;;;;4.70;2.17;;;20.40;73.00;;;;;;4971958;28;20491;-81
2022/06/23 02:27:18;;;;;;;3.92;1.80;;;20.40;73.20;;;;;;4971751;28;20054;-81
2022/06/23 02:29:50;;;;;;;3.72;2.03;;;20.40;73.50;;;;;;4970818;28;20098;-81
2022/06/23 02:32:22;;;;;;;3.65;1.95;;;20.30;73.80;;;;;;4971964;28;20027;-81
2022/06/23 02:35:14;;;;;;;4.57;2.10;;;20.30;74.10;;;;;;4971849;28;20639;-81
2022/06/23 02:37:51;;;;;;;5.10;1.90;;;20.20;74.40;;;;;;4971680;28;20106;-81
2022/06/23 02:40:17;;;;;;;6.03;1.95;;;20.20;74.90;;;;;;4971961;28;20558;-81
2022/06/23 02:42:43;;;;;;;7.10;3.90;;;20.10;75.10;;;;;;4971837;28;20030;-81
2022/06/23 02:45:12;;;;;;;6.38;2.90;;;20.10;75.00;;;;;;4971839;28;20034;-81
2022/06/23 02:47:46;;;;;;;5.03;2.20;;;20.10;75.10;;;;;;4971669;28;20031;-81
2022/06/23 02:50:49;;;;;;;4.95;2.22;;;20.10;75.20;;;;;;4970290;28;20134;-81
2022/06/23 02:53:24;;;;;;;4.32;1.92;;;20.10;75.40;;;;;;4971454;28;20539;-81
2022/06/23 02:56:14;;;;;;;4.95;2.00;;;20.10;75.40;;;;;;4971478;28;20046;-81
2022/06/23 02:58:49;;;;;;;4.50;2.13;;;20.10;75.50;;;;;;4971431;28;20034;-81
2022/06/23 03:01:32;;;;;;;5.05;2.00;;;20.10;75.60;;;;;;4971596;28;20120;-81
2022/06/23 03:04:01;;;;;;;5.43;2.22;;;20.00;75.90;;;;;;4970442;28;20031;-82
2022/06/23 03:06:44;;;;;;;4.38;2.17;;;20.00;76.10;;;;;;4972013;28;20071;-87
2022/06/23 03:09:31;;;;;;;4.30;2.40;;;20.00;76.70;;;;;;4953911;28;20042;-83
2022/06/23 03:12:12;;;;;;;4.57;2.10;;;20.00;76.70;;;;;;4970493;28;20479;-83
2022/06/23 03:14:37;;;;;;;5.72;2.25;;;19.90;76.80;;;;;;4987898;23;20479;-87
2022/06/23 03:17:21;;;;;;;3.67;1.90;;;19.90;77.00;;;;;;4951151;29;20035;-89
2022/06/23 03:23:32;;;;;;;3.47;2.00;;;19.90;77.30;;;;;;4952328;29;20443;-83
2022/06/23 03:26:23;;;;;;;7.20;3.30;;;19.80;77.90;;;;;;4954263;28;20038;-84
2022/06/23 03:29:11;;;;;;;5.60;2.17;;;19.70;78.90;;;;;;4955391;28;20042;-84
2022/06/23 03:31:40;;;;;;;5.97;2.40;;;19.80;79.30;;;;;;4955597;28;20085;-84
2022/06/23 03:34:28;;;;;;;5.35;2.17;;;19.90;79.80;;;;;;4955548;28;20035;-84
2022/06/23 03:37:01;;;;;;;4.90;2.10;;;19.90;78.70;;;;;;4955291;29;20074;-84
2022/06/23 03:42:32;;;;;;;5.57;2.10;;;19.90;78.70;;;;;;4954099;29;20047;-84
2022/06/23 03:45:04;;;;;;;4.32;2.28;;;19.90;78.90;;;;;;4955205;28;20039;-84
2022/06/23 03:47:44;;;;;;;5.35;2.10;;;19.90;79.10;;;;;;4955042;29;20140;-84
2022/06/23 03:50:29;;;;;;;5.13;2.30;;;19.80;79.20;;;;;;4953662;29;20488;-83
2022/06/23 03:53:02;;;;;;;4.25;2.53;;;19.80;79.40;;;;;;4955189;29;20043;-83
2022/06/23 03:55:37;;;;;;;5.57;2.70;;;19.70;79.80;;;;;;4955117;28;20028;-85
2022/06/23 03:58:24;;;;;;;5.72;2.30;;;19.60;79.90;;;;;;4954963;29;20039;-83
2022/06/23 04:01:08;;;;;;;6.00;2.30;;;19.60;80.20;;;;;;4955010;29;20082;-89
2022/06/23 04:03:57;;;;;;;5.57;2.35;;;19.60;80.60;;;;;;4954968;29;20031;-87
2022/06/23 04:06:55;;;;;;;6.63;2.80;;;19.60;80.80;;;;;;4953729;29;20031;-87
2022/06/23 04:09:27;;;;;;;6.30;2.58;;;19.50;81.30;;;;;;4942134;29;20411;-84
2022/06/23 04:11:53;;;;;;;4.18;2.45;;;19.60;81.40;;;;;;4954699;29;20123;-84
2022/06/23 04:14:33;;;;;;;5.30;2.50;;;19.60;81.60;;;;;;4954542;28;20118;-84
2022/06/23 04:17:11;;;;;;;7.80;2.80;;;19.60;81.80;;;;;;4953180;29;20456;-84
2022/06/23 04:19:42;;;;;;;5.68;2.65;;;19.60;82.00;;;;;;4954693;28;20031;-85
2022/06/23 04:22:22;;;;;;;4.85;2.20;;;19.60;81.90;;;;;;4954751;29;20035;-84
2022/06/23 04:24:53;;;;;;;5.35;2.75;;;19.60;81.80;;;;;;4937265;29;20109;-84
2022/06/23 04:27:25;;;;;;;5.70;2.80;;;19.60;82.00;;;;;;4954251;29;20031;-85
2022/06/23 04:29:55;;;;;;;4.45;2.70;;;19.70;82.20;;;;;;4954431;29;20039;-85
2022/06/23 04:32:34;;;;;;;5.53;2.35;;;19.70;82.20;;;;;;4953771;28;20197;-84
2022/06/23 04:35:15;;;;;;;5.13;2.33;;;19.70;82.00;;;;;;4954614;28;20036;-85
2022/06/23 04:37:55;;;;;;;4.57;2.30;;;19.70;82.10;;;;;;4954254;29;20038;-84
2022/06/23 04:40:32;;;;;;;5.95;2.65;;;19.70;82.50;;;;;;4954095;28;20034;-85
2022/06/23 04:43:22;;;;;;;4.10;2.33;;;19.80;82.70;;;;;;4954233;29;20095;-84
2022/06/23 04:45:59;;;;;;;6.40;2.55;;;19.80;82.90;;;;;;4952761;28;20106;-85
2022/06/23 04:48:28;;;;;;;6.07;2.97;;;19.80;83.00;;;;;;4954123;29;20122;-84
2022/06/23 04:50:58;;;;;;;5.38;2.65;;;19.80;83.00;;;;;;4953885;28;20027;-85
2022/06/23 04:53:51;;;;;;;6.40;3.25;;;19.90;83.10;;;;;;4954149;29;20031;-84
2022/06/23 04:56:16;;;;;;;5.13;2.85;;;19.90;83.20;;;;;;4953767;28;20110;-85
2022/06/23 04:58:56;;;;;;;6.50;2.45;;;19.90;83.30;;;;;;4953640;29;20596;-85
2022/06/23 05:01:25;;;;;;;10.63;3.05;;;19.90;83.70;;;;;;4954045;29;20171;-84
2022/06/23 05:03:56;;;;;;;7.93;2.83;;;20.00;83.90;;;;;;4952425;29;20031;-85
2022/06/23 05:06:25;;;;;;;4.72;2.67;;;20.00;83.90;;;;;;4952451;29;20062;-85
2022/06/23 05:08:51;;;;;;;8.05;2.70;;;20.00;84.00;;;;;;4953551;29;20027;-85
2022/06/23 05:11:34;;;;;;;6.68;2.40;;;20.10;84.10;;;;;;4953521;29;20559;-85
2022/06/23 05:14:13;;;;;;;7.35;3.05;;;20.10;84.20;;;;;;4953562;28;20027;-85
2022/06/23 05:16:46;;;;;;;6.05;2.63;;;20.20;84.20;;;;;;4953856;29;20037;-85
2022/06/23 05:19:25;;;;;;;4.55;2.42;;;20.20;84.30;;;;;;4953348;28;20035;-85
2022/06/23 05:22:55;;;;;;;6.03;2.75;;;20.20;84.50;;;;;;4953343;29;20031;-95
2022/06/23 05:25:30;;;;;;;6.78;2.70;;;20.30;84.50;;;;;;4964707;23;20039;-67
2022/06/23 05:27:56;;;;;;;5.10;2.85;;;20.30;84.80;;;;;;4953360;28;20043;-69
2022/06/23 05:30:33;;;;;;;3.47;2.17;;;20.40;84.90;;;;;;4953554;29;20047;-69
2022/06/23 05:33:07;;;;;;;5.40;3.03;;;20.40;85.00;;;;;;4953572;29;20031;-68
2022/06/23 05:35:42;;;;;;;5.03;2.97;;;20.50;85.30;;;;;;4953842;28;20122;-69
2022/06/23 05:38:27;;;;;;;4.32;2.35;;;20.50;85.50;;;;;;4954051;28;20043;-69
2022/06/23 05:40:56;;;;;;;4.63;2.08;;;20.50;85.80;;;;;;4954175;29;20118;-69
2022/06/23 05:43:24;;;;;;;4.68;2.78;;;20.60;85.80;;;;;;4953338;28;20377;-69
2022/06/23 05:45:55;;;;;;;5.07;2.20;;;20.60;85.80;;;;;;4953271;29;20035;-67
2022/06/23 05:48:42;;;;;;;5.63;2.30;;;20.70;85.60;;;;;;4953315;28;20065;-68
2022/06/23 05:51:17;;;;;;;5.13;2.50;;;20.70;85.40;;;;;;4953282;29;20030;-67
2022/06/23 05:53:56;;;;;;;3.78;2.20;;;20.80;84.50;;;;;;4953514;29;20027;-68
2022/06/23 05:56:23;;;;;;;4.22;2.50;;;20.80;84.00;;;;;;4952954;28;20082;-67
2022/06/23 05:58:51;;;;;;;3.80;2.00;;;20.90;83.90;;;;;;4953442;28;20039;-67
2022/06/23 06:01:26;;;;;;;7.22;2.72;;;20.90;83.90;;;;;;4953170;28;20055;-70
2022/06/23 06:04:05;;;;;;;13.00;4.05;;;20.90;84.20;;;;;;4953121;28;20456;-69
2022/06/23 06:06:33;;;;;;;16.27;4.85;;;21.00;84.30;;;;;;4953016;29;20404;-69
2022/06/23 06:11:52;;;;;;;7.43;2.90;;;21.00;84.60;;;;;;4953167;28;20035;-69
2022/06/23 06:14:23;;;;;;;5.68;2.90;;;21.10;84.70;;;;;;4953054;29;20049;-68
2022/06/23 06:16:49;;;;;;;5.95;2.40;;;21.20;84.80;;;;;;4952994;28;20031;-69
2022/06/23 06:19:17;;;;;;;5.55;2.65;;;21.20;84.90;;;;;;4951647;28;20090;-68
2022/06/23 06:21:45;;;;;;;5.00;1.98;;;21.20;84.60;;;;;;4951213;29;20042;-68
2022/06/23 06:24:29;;;;;;;4.00;2.20;;;21.20;84.40;;;;;;4951270;29;20039;-68
2022/06/23 06:26:57;;;;;;;3.90;2.10;;;21.30;84.20;;;;;;4951439;28;20103;-68
2022/06/23 06:29:32;;;;;;;4.93;2.75;;;21.30;84.20;;;;;;4950784;28;20477;-68
2022/06/23 06:32:19;;;;;;;3.53;2.50;;;21.40;84.10;;;;;;4951206;28;20039;-68
2022/06/23 06:34:53;;;;;;;5.18;2.90;;;21.40;84.50;;;;;;4950918;29;20334;-68
2022/06/23 06:37:21;;;;;;;10.57;3.67;;;21.50;84.30;;;;;;4952552;28;20473;-68
2022/06/23 06:39:56;;;;;;;4.90;2.90;;;21.60;84.30;;;;;;4953012;29;20058;-68
2022/06/23 06:42:29;;;;;;;6.35;2.67;;;21.70;84.40;;;;;;4951560;29;20472;-68
2022/06/23 06:45:07;;;;;;;9.20;2.90;;;21.70;84.70;;;;;;4952605;29;20035;-69
2022/06/23 06:47:35;;;;;;;5.35;2.83;;;21.80;85.00;;;;;;4951046;28;20027;-68
2022/06/23 06:50:07;;;;;;;6.78;3.58;;;21.80;85.30;;;;;;4952472;29;20035;-69
2022/06/23 06:52:33;;;;;;;8.82;3.50;;;21.90;86.00;;;;;;4952973;29;20023;-68
2022/06/23 06:55:07;;;;;;;10.13;4.00;;;22.00;86.00;;;;;;4954333;28;20053;-68
2022/06/23 06:57:43;;;;;;;7.95;3.67;;;22.10;86.00;;;;;;4956097;28;20154;-68
2022/06/23 07:00:19;;;;;;;6.35;3.63;;;22.10;86.00;;;;;;4956609;28;20102;-69
2022/06/23 07:02:52;;;;;;;7.30;3.47;;;22.20;86.00;;;;;;4956459;28;20159;-69
2022/06/23 07:05:44;;;;;;;7.40;3.40;;;22.30;86.00;;;;;;4956435;28;20114;-68
2022/06/23 07:08:17;;;;;;;10.60;3.97;;;22.40;85.90;;;;;;4953700;28;20047;-68
2022/06/23 07:11:00;;;;;;;8.55;4.15;;;22.40;86.00;;;;;;4956065;29;20479;-69
2022/06/23 07:13:38;;;;;;;8.95;3.13;;;22.50;86.40;;;;;;4956135;29;20440;-69
2022/06/23 07:16:12;;;;;;;;;;;22.50;86.30;;;;;;4956293;29;20035;-69
2022/06/23 07:18:47;;;;;;;6.22;3.00;;;22.50;86.50;;;;;;4955732;28;19914;-69
2022/06/23 07:21:24;;;;;;;7.38;3.63;;;22.60;86.50;;;;;;4955866;29;20027;-69
2022/06/23 07:23:56;;;;;;;8.05;4.40;;;22.60;86.90;;;;;;4956025;29;20126;-69
2022/06/23 07:26:57;;;;;;;11.55;4.93;;;22.70;87.00;;;;;;4954708;29;20031;-68
2022/06/23 07:29:32;;;;;;;8.80;4.03;;;22.70;86.80;;;;;;4954295;28;20038;-68
2022/06/23 07:32:05;;;;;;;12.77;4.30;;;22.80;86.60;;;;;;4954727;29;20023;-68
2022/06/23 07:34:37;;;;;;;7.93;3.25;;;22.80;86.60;;;;;;4954848;29;20031;-68
2022/06/23 07:37:26;;;;;;;5.80;3.30;;;22.90;86.50;;;;;;4954370;29;20054;-69
2022/06/23 07:40:04;;;;;;;6.50;3.35;;;22.90;86.60;;;;;;4954341;29;20059;-68
2022/06/23 07:42:36;;;;;;;11.63;3.57;;;22.90;86.80;;;;;;4954462;29;20399;-68
2022/06/23 07:45:07;;;;;;;4.75;2.60;;;22.90;86.70;;;;;;4953059;29;20281;-68
2022/06/23 07:47:33;;;;;;;8.57;3.60;;;22.80;86.80;;;;;;4954147;28;20031;-68
2022/06/23 07:50:00;;;;;;;5.90;3.25;;;22.90;86.80;;;;;;4954185;29;20074;-69
2022/06/23 07:52:26;;;;;;;7.93;3.03;;;22.90;87.10;;;;;;4954420;29;20035;-69
2022/06/23 07:54:53;;;;;;;7.53;2.95;;;22.90;87.10;;;;;;4953073;29;20070;-69
2022/06/23 07:57:19;;;;;;;5.30;2.75;;;22.90;86.90;;;;;;4953994;28;20119;-69
2022/06/23 07:59:58;;;;;;;7.95;4.07;;;22.90;86.90;;;;;;4954018;29;20141;-69
2022/06/23 08:02:52;;;;;;;6.90;3.67;;;23.00;86.90;;;;;;4954197;29;20480;-69
2022/06/23 08:05:42;;;;;;;5.68;2.92;;;23.00;86.90;;;;;;4950996;28;20039;-69
2022/06/23 08:08:15;;;;;;;6.95;2.90;;;23.10;87.00;;;;;;4953207;28;20540;-69
2022/06/23 08:10:42;;;;;;;8.07;3.92;;;23.10;86.90;;;;;;4953915;28;20063;-69
2022/06/23 08:13:19;;;;;;;7.43;3.63;;;23.20;87.20;;;;;;4954202;29;20054;-69
2022/06/23 08:18:47;;;;;;;8.65;3.70;;;23.30;87.20;;;;;;4953686;28;20527;-68
2022/06/23 08:21:23;;;;;;;6.85;3.70;;;23.40;87.00;;;;;;4953988;29;20034;-69
2022/06/23 08:24:03;;;;;;;35.85;5.93;;;23.50;86.80;;;;;;4953935;29;20035;-68
2022/06/23 08:26:30;;;;;;;11.90;3.80;;;23.60;86.10;;;;;;4911667;29;1256247;-69
2022/06/23 08:29:01;;;;;;;8.63;4.07;;;23.70;85.70;;;;;;4954472;28;20476;-69
2022/06/23 08:31:29;;;;;;;13.63;5.13;;;23.70;85.60;;;;;;4954772;29;20395;-68
2022/06/23 08:33:57;;;;;;;12.95;4.47;;;23.80;85.60;;;;;;4954747;29;20469;-69
2022/06/23 08:36:42;;;;;;;10.65;4.60;;;23.80;85.60;;;;;;4954681;28;20028;-69
2022/06/23 08:39:17;;;;;;;11.77;5.65;;;23.90;85.30;;;;;;4954389;28;20042;-68
2022/06/23 08:41:53;;;;;;;10.48;5.07;;;24.00;84.80;;;;;;4954417;29;20039;-68
2022/06/23 08:44:41;;;;;;;9.50;4.80;;;24.00;84.40;;;;;;4954637;29;20035;-69
2022/06/23 08:47:15;;;;;;;9.50;4.30;;;24.00;84.00;;;;;;4954158;28;20027;-68
2022/06/23 08:49:47;;;;;;;7.03;4.32;;;24.10;84.10;;;;;;4954145;29;20061;-68
2022/06/23 08:52:19;;;;;;;11.48;5.10;;;24.10;84.20;;;;;;4954541;29;20031;-69
2022/06/23 08:54:59;;;;;;;13.85;6.05;;;24.10;83.50;;;;;;4954692;29;20031;-68
2022/06/23 08:57:54;;;;;;;14.95;5.72;;;24.10;83.50;;;;;;4954078;28;20031;-68
2022/06/23 09:00:41;;;;;;;11.93;5.32;;;24.20;83.40;;;;;;4953928;29;20527;-68
2022/06/23 09:03:34;;;;;;;12.80;5.63;;;24.30;82.50;;;;;;4953008;29;20110;-68
2022/06/23 09:06:17;;;;;;;10.50;5.30;;;24.30;82.30;;;;;;4952898;29;20449;-68
2022/06/23 09:08:56;;;;;;;13.93;7.05;;;24.30;82.60;;;;;;4953765;28;20027;-68
2022/06/23 09:11:51;;;;;;;9.63;5.13;;;24.30;82.60;;;;;;4954110;29;20038;-68
2022/06/23 09:14:34;;;;;;;7.90;4.35;;;24.40;81.20;;;;;;4953959;29;20054;-68
2022/06/23 09:17:33;;;;;;;8.95;4.00;;;24.40;81.50;;;;;;4953590;28;20031;-68
2022/06/23 09:20:23;;;;;;;6.95;4.25;;;24.40;82.00;;;;;;4952175;29;20407;-68
2022/06/23 09:23:01;;;;;;;8.65;5.00;;;24.40;81.00;;;;;;4954226;29;20035;-68
2022/06/23 09:25:46;;;;;;;7.55;4.45;;;24.50;80.50;;;;;;4953549;29;20035;-68
2022/06/23 09:28:20;;;;;;;7.95;4.40;;;24.50;79.50;;;;;;4953563;28;20031;-68
2022/06/23 09:31:13;;;;;;;9.75;3.38;;;24.50;78.20;;;;;;4953591;29;20114;-68
2022/06/23 09:33:46;;;;;;;8.93;3.95;;;24.70;76.20;;;;;;4953592;29;20042;-68
2022/06/23 09:36:30;;;;;;;7.70;3.15;;;24.70;75.70;;;;;;4953679;29;20023;-68
2022/06/23 09:39:14;;;;;;;6.38;3.10;;;24.80;75.50;;;;;;4953358;28;20032;-68
2022/06/23 09:41:58;;;;;;;9.90;3.80;;;24.90;75.40;;;;;;4953483;29;20031;-69
2022/06/23 09:44:38;;;;;;;7.07;4.80;;;25.00;75.30;;;;;;4953353;29;20041;-69
2022/06/23 09:47:22;;;;;;;8.68;4.82;;;24.90;75.60;;;;;;4953326;29;20046;-69
2022/06/23 09:50:07;;;;;;;7.80;3.75;;;24.90;75.60;;;;;;4952976;29;20027;-69
2022/06/23 09:53:04;;;;;;;6.30;3.45;;;25.00;74.50;;;;;;4953312;29;20098;-68
2022/06/23 09:55:51;;;;;;;8.88;4.45;;;25.00;74.90;;;;;;4953263;29;20039;-68
2022/06/23 09:58:29;;;;;;;8.88;6.00;;;25.00;76.10;;;;;;4953118;28;20070;-68
2022/06/23 10:01:23;;;;;;;7.43;5.00;;;25.00;76.60;;;;;;4953113;29;20065;-68
2022/06/23 10:03:52;;;;;;;10.10;4.72;;;25.00;76.00;;;;;;4953216;28;20444;-68
2022/06/23 10:06:56;;;;;;;9.77;4.43;;;25.00;76.60;;;;;;4953021;29;20122;-68
2022/06/23 10:10:00;;;;;;;6.22;3.80;;;24.90;76.50;;;;;;4931071;29;20035;-69
2022/06/23 10:12:32;;;;;;;7.43;3.80;;;24.90;76.60;;;;;;4874829;29;20037;-68
2022/06/23 10:15:25;;;;;;;6.88;3.70;;;25.00;76.10;;;;;;4889382;29;20394;-69
2022/06/23 10:18:34;;;;;;;8.07;4.22;;;25.00;76.30;;;;;;4934311;28;20035;-68
2022/06/23 10:21:27;;;;;;;6.75;4.38;;;25.10;75.60;;;;;;4947155;28;20046;-68
2022/06/23 10:24:19;;;;;;;7.00;4.00;;;25.10;76.10;;;;;;4953286;28;20111;-68
2022/06/23 10:26:54;;;;;;;6.70;3.78;;;25.10;74.30;;;;;;4952986;29;20039;-68
2022/06/23 10:29:41;;;;;;;5.35;3.40;;;25.20;74.10;;;;;;4952799;28;20039;-69
2022/06/23 10:32:49;;;;;;;4.85;3.20;;;25.20;73.90;;;;;;4956942;28;20042;-68
2022/06/23 10:35:24;;;;;;;;;;;25.10;76.20;;;;;;4954123;29;20066;-68
2022/06/23 10:37:58;;;;;;;7.28;3.92;;;25.20;74.60;;;;;;4956920;28;19910;-68
2022/06/23 10:41:06;;;;;;;5.57;3.78;;;25.20;74.00;;;;;;4956410;29;20031;-68
2022/06/23 10:43:38;;;;;;;;;;;25.30;73.60;;;;;;4954084;29;20043;-68
2022/06/23 10:46:24;;;;;;;5.70;3.67;;;25.30;73.70;;;;;;4956628;28;19915;-68
2022/06/23 10:49:05;;;;;;;6.45;3.65;;;25.40;73.90;;;;;;4955181;28;20407;-69
2022/06/23 10:51:37;;;;;;;5.90;3.25;;;25.50;74.00;;;;;;4956422;29;20034;-68
2022/06/23 10:54:08;;;;;;;4.95;3.40;;;25.50;73.80;;;;;;4956566;29;20027;-68
2022/06/23 10:57:16;;;;;;;5.85;3.13;;;25.50;74.40;;;;;;4956189;29;20025;-68
2022/06/23 11:00:07;;;;;;;5.75;3.47;;;25.50;75.00;;;;;;4956227;29;20039;-68
2022/06/23 11:02:56;;;;;;;8.95;3.58;;;25.40;75.40;;;;;;4956535;29;20090;-68
2022/06/23 11:06:00;;;;;;;7.60;3.70;;;25.40;75.50;;;;;;4956324;29;20059;-68
2022/06/23 11:08:29;;;;;;;7.32;3.53;;;25.40;76.40;;;;;;4934548;29;20099;-68
2022/06/23 11:11:07;;;;;;;7.30;3.83;;;25.40;75.80;;;;;;4934527;29;20374;-68
2022/06/23 11:14:05;;;;;;;8.05;3.60;;;25.60;74.90;;;;;;4946794;28;20035;-68
2022/06/23 11:16:57;;;;;;;6.45;3.20;;;25.70;75.20;;;;;;4955061;29;20458;-68
2022/06/23 11:19:50;;;;;;;5.13;3.38;;;25.80;74.60;;;;;;4954567;28;20036;-68
2022/06/23 11:22:34;;;;;;;19.13;5.45;;;25.90;74.90;;;;;;4956100;29;20036;-68
2022/06/23 11:25:24;;;;;;;5.65;3.42;;;25.90;75.10;;;;;;4955856;29;20485;-69
2022/06/23 11:28:23;;;;;;;5.25;3.35;;;25.90;74.80;;;;;;4954327;28;20515;-69
2022/06/23 11:30:58;;;;;;;6.05;3.80;;;26.00;75.00;;;;;;4955719;29;20099;-68
2022/06/23 11:33:47;;;;;;;7.13;3.72;;;26.10;75.30;;;;;;4955607;29;20480;-68
2022/06/23 11:36:35;;;;;;;9.20;4.57;;;26.10;75.30;;;;;;4955618;29;20068;-68
2022/06/23 11:39:12;;;;;;;6.88;3.70;;;26.20;74.40;;;;;;4955408;28;20031;-68
2022/06/23 11:41:45;;;;;;;6.38;3.63;;;26.20;75.70;;;;;;4955273;28;20063;-69
2022/06/23 11:44:25;;;;;;;7.38;4.07;;;26.10;75.20;;;;;;4955637;29;20082;-68
2022/06/23 11:47:08;;;;;;;7.90;3.90;;;26.20;75.30;;;;;;4955574;29;20035;-69
2022/06/23 11:49:42;;;;;;;6.93;3.40;;;26.20;75.10;;;;;;4954002;29;20050;-69
2022/06/23 11:52:38;;;;;;;16.08;4.35;;;26.30;74.80;;;;;;4955681;28;20039;-68
2022/06/23 11:55:07;;;;;;;9.75;5.13;;;26.40;75.10;;;;;;4955334;29;20031;-69
2022/06/23 11:57:48;;;;;;;6.85;4.18;;;26.30;75.30;;;;;;4955036;28;20046;-68
2022/06/23 12:00:22;;;;;;;5.47;3.72;;;26.30;77.10;;;;;;4955038;29;20031;-68
2022/06/23 12:03:29;;;;;;;7.90;4.47;;;26.30;75.80;;;;;;4955258;29;20419;-68
2022/06/23 12:06:05;;;;;;;5.00;3.92;;;26.40;75.20;;;;;;4944463;28;20039;-68
2022/06/23 12:08:52;;;;;;;6.80;4.07;;;26.50;75.00;;;;;;4954788;28;20102;-69
2022/06/23 12:11:18;;;;;;;7.65;4.80;;;26.50;74.60;;;;;;4955036;29;20031;-68
2022/06/23 12:14:07;;;;;;;5.43;3.50;;;26.60;75.40;;;;;;4955038;29;20392;-69
2022/06/23 12:16:41;;;;;;;8.40;4.15;;;26.70;74.60;;;;;;4954787;28;20023;-68
2022/06/23 12:19:14;;;;;;;6.10;3.97;;;26.90;74.10;;;;;;4954772;28;20031;-68
2022/06/23 12:22:01;;;;;;;10.07;5.30;;;26.90;74.40;;;;;;4954901;28;20111;-68
2022/06/23 12:25:08;;;;;;;7.32;3.53;;;27.10;73.60;;;;;;4954616;29;20031;-68
2022/06/23 12:28:06;;;;;;;5.88;3.70;;;27.30;72.80;;;;;;4954355;28;20054;-68
2022/06/23 12:30:42;;;;;;;7.07;3.93;;;27.30;73.30;;;;;;4954472;28;20075;-68
2022/06/23 12:33:40;;;;;;;8.18;3.63;;;27.30;74.10;;;;;;4954708;29;20836;-68
2022/06/23 12:36:38;;;;;;;8.23;3.60;;;27.40;72.90;;;;;;4954552;29;20031;-68
2022/06/23 12:39:08;;;;;;;;;;;27.50;72.50;;;;;;4946565;29;20412;-69
2022/06/23 12:41:52;;;;;;;8.02;4.60;;;27.80;71.90;;;;;;4953332;28;20355;-68
2022/06/23 12:44:35;;;;;;;7.53;4.85;;;27.90;71.50;;;;;;4954553;29;20031;-68
2022/06/23 12:47:01;;;;;;;5.82;4.10;;;28.10;71.30;;;;;;4954404;29;20031;-68
2022/06/23 12:49:34;;;;;;;12.43;4.72;;;28.30;71.00;;;;;;4954398;28;20035;-68
2022/06/23 12:52:14;;;;;;;9.13;5.13;;;28.30;71.90;;;;;;4953848;28;20034;-68
2022/06/23 12:55:17;;;;;;;8.88;5.10;;;28.50;70.40;;;;;;4954299;29;20027;-68
2022/06/23 12:58:28;;;;;;;7.18;4.18;;;28.60;70.00;;;;;;4952976;28;20055;-68
2022/06/23 13:01:04;;;;;;;5.90;3.88;;;28.60;70.00;;;;;;4954258;28;20042;-68
2022/06/23 13:04:15;;;;;;;6.30;3.60;;;28.70;69.80;;;;;;4953255;29;20066;-68
2022/06/23 13:07:02;;;;;;;6.38;3.70;;;28.70;69.40;;;;;;4932175;29;20035;-68
2022/06/23 13:09:42;;;;;;;7.55;3.72;;;28.70;69.70;;;;;;4932128;29;20051;-68
2022/06/23 13:12:49;;;;;;;6.82;3.40;;;28.70;69.00;;;;;;4947874;29;20035;-68
2022/06/23 13:15:16;;;;;;;7.60;3.40;;;28.60;68.80;;;;;;4932869;29;20046;-68
2022/06/23 13:18:04;;;;;;;7.13;3.70;;;28.40;69.00;;;;;;4950578;28;20116;-67
2022/06/23 13:20:55;;;;;;;7.55;3.40;;;28.30;69.60;;;;;;4954235;28;20027;-68
2022/06/23 13:23:44;;;;;;;5.57;3.10;;;28.10;70.50;;;;;;4954334;29;20023;-68
2022/06/23 13:26:28;;;;;;;7.93;3.72;;;27.90;71.60;;;;;;4946519;29;20404;-68
2022/06/23 13:29:15;;;;;;;5.53;3.70;;;27.80;71.30;;;;;;4953570;28;20035;-68
2022/06/23 13:31:57;;;;;;;5.13;3.40;;;27.80;71.40;;;;;;4953505;29;20031;-68
2022/06/23 13:34:40;;;;;;;4.63;3.10;;;27.60;72.40;;;;;;4953959;29;20024;-68
2022/06/23 13:37:50;;;;;;;5.38;3.05;;;27.50;72.20;;;;;;4952236;28;20066;-68
2022/06/23 13:40:37;;;;;;;4.75;3.03;;;27.40;72.10;;;;;;4947157;29;20046;-68
2022/06/23 13:43:07;;;;;;;5.43;2.83;;;27.40;71.30;;;;;;4953608;29;20031;-68
2022/06/23 13:45:43;;;;;;;6.40;2.80;;;27.40;71.00;;;;;;4952278;29;20031;-68
2022/06/23 13:48:31;;;;;;;5.50;3.38;;;27.50;70.70;;;;;;4953378;28;20059;-68
2022/06/23 13:51:03;;;;;;;5.93;3.28;;;27.60;70.60;;;;;;4953835;29;20061;-68
2022/06/23 13:54:21;;;;;;;8.70;3.63;;;27.70;71.10;;;;;;4953431;29;20031;-68
2022/06/23 13:57:01;;;;;;;7.75;4.15;;;27.80;70.00;;;;;;4942328;28;20044;-68
2022/06/23 13:59:50;;;;;;;7.22;3.40;;;28.00;68.60;;;;;;4953304;28;20118;-68
2022/06/23 14:02:23;;;;;;;59.20;6.43;;;28.20;68.40;;;;;;4953512;29;20370;-68
2022/06/23 14:05:13;;;;;;;41.28;4.85;;;28.40;68.10;;;;;;4953205;29;20043;-68
2022/06/23 14:08:12;;;;;;;11.40;3.50;;;28.70;67.10;;;;;;4952962;28;20392;-68